Archer, Wyoming
Current Conditions -  °F | °C
As of 8:53 PM on Thursday 18 Dec 2014 (Local Time) from KCYS Reporting Station
Clear Clear  
Wind Chill: 19°   Ceiling: Unl
Heat Index: 28°   Visibility: 10mi
Dew Point: 15°   Wind: 9mph
Humidity: 58%   Direction: 270°W
Pressure: 30.06"   Gusts: NA
Location:  41.4091°N, 104.861°W
Report Text: KCYS 190353Z 27008KT 10SM CLR M02/M09 A3006 RMK AO2 SLP208 T10221094
Loading
Personal Weather Stations






























Interactive Weather Map New forecast layout! Learn more

10-Day Weather Forecast

Advertisements
Track Severe Weather on mobile